Terminal Aerodrome Forecast
Issued by NWS

Home | Current Version | Previous Version | Text Only | Print | Product List | Glossary On
Versions: 1 2 3 4 5 6 7 8 9 10 11 12 13 14 15 16 17 18 19
000
FTAK31 PAFA 172339
TAFASC
TAF
PASC 172339Z 1800/1824 VRB05KT P6SM VCSH OVC010
     FM180600 05005KT 4SM BR VCSH OVC005
     FM181000 26004KT 1SM -DZ BR OVC004
     FM181800 26004KT 4SM BR OVC004
     FM182100 33007KT P6SM OVC015=

USA.gov is the U.S. government's official web portal to all federal, state and local government web resources and services.